Time;durP1;ratioP1;P1;durP2;ratioP2;P2;SDS_P1;SDS_P2;PMS_P1;PMS_P2;Temp;Humidity;BMP_temperature;BMP_pressure;BME280_temperature;BME280_humidity;BME280_pressure;Samples;Min_cycle;Max_cycle;Signal;HPM_P1;HPM_P2
2021/09/29 00:01:41;;;;;;;10.35;7.82;;;;;;;14.13;91.90;99568.09;5075097;28;20191;-71
2021/09/29 00:04:08;;;;;;;9.15;7.28;;;;;;;14.11;91.86;99570.06;5074457;28;20223;-73
2021/09/29 00:06:34;;;;;;;14.98;7.65;;;;;;;14.09;92.05;99569.34;5075127;28;20526;-72
2021/09/29 00:09:01;;;;;;;9.60;7.45;;;;;;;14.04;92.47;99566.06;5072722;28;20214;-72
2021/09/29 00:11:29;;;;;;;8.32;7.15;;;;;;;14.10;91.36;99581.88;5074447;28;20203;-72
2021/09/29 00:13:55;;;;;;;9.35;7.20;;;;;;;13.94;92.07;99577.56;5074854;28;20225;-73
2021/09/29 00:16:22;;;;;;;11.55;7.45;;;;;;;13.89;93.01;99576.19;5074569;28;20194;-72
2021/09/29 00:18:50;;;;;;;9.20;6.78;;;;;;;13.93;92.18;99575.84;5074616;28;20199;-73
2021/09/29 00:21:17;;;;;;;9.50;6.03;;;;;;;13.62;94.70;99570.91;5054713;28;20617;-73
2021/09/29 00:23:43;;;;;;;7.78;6.75;;;;;;;13.66;95.04;99565.19;5054087;28;20214;-73
2021/09/29 00:26:12;;;;;;;6.63;5.53;;;;;;;13.65;95.43;99566.13;5054292;28;20191;-73
2021/09/29 00:28:40;;;;;;;9.13;6.15;;;;;;;13.81;93.79;99562.34;5057753;28;20236;-72
2021/09/29 00:31:16;;;;;;;7.53;6.10;;;;;;;13.64;94.21;99571.69;5074429;28;20651;-73
2021/09/29 00:33:46;;;;;;;8.10;6.35;;;;;;;13.55;94.82;99571.34;5074211;28;20281;-73
2021/09/29 00:36:13;;;;;;;7.68;6.55;;;;;;;13.62;94.25;99574.47;5074088;28;20209;-72
2021/09/29 00:38:39;;;;;;;7.78;5.88;;;;;;;13.56;95.08;99574.91;5074342;28;20208;-75
2021/09/29 00:41:06;;;;;;;7.70;5.78;;;;;;;13.49;95.78;99571.78;5063525;28;20550;-74
2021/09/29 00:43:33;;;;;;;7.10;6.40;;;;;;;13.30;97.07;99568.66;5054204;28;20183;-74
2021/09/29 00:46:01;;;;;;;7.18;6.10;;;;;;;13.29;98.03;99575.88;5054294;28;20213;-74
2021/09/29 00:48:27;;;;;;;11.95;5.65;;;;;;;13.25;97.90;99574.34;5054362;28;20207;-74
2021/09/29 00:50:54;;;;;;;8.55;6.10;;;;;;;13.11;99.39;99578.00;5054428;28;20812;-74
2021/09/29 00:53:21;;;;;;;9.68;6.43;;;;;;;12.94;100.00;99576.44;5054011;28;20244;-74
2021/09/29 00:55:48;;;;;;;11.95;6.32;;;;;;;12.93;100.00;99572.03;5055524;28;20558;-74
2021/09/29 00:58:15;;;;;;;8.85;7.03;;;;;;;12.86;100.00;99575.22;5054071;28;20200;-74
2021/09/29 01:00:41;;;;;;;9.45;7.25;;;;;;;12.82;100.00;99571.91;5054067;28;20193;-73
2021/09/29 01:03:09;;;;;;;11.15;6.90;;;;;;;12.83;100.00;99573.59;5054200;28;20186;-74
2021/09/29 01:05:38;;;;;;;11.23;5.95;;;;;;;12.96;100.00;99573.66;5054105;28;20232;-74
2021/09/29 01:08:11;;;;;;;10.27;6.53;;;;;;;12.96;100.00;99567.34;5053765;28;20189;-74
2021/09/29 01:10:44;;;;;;;8.27;6.43;;;;;;;12.88;100.00;99573.28;5054918;28;20276;-73
2021/09/29 01:13:19;;;;;;;9.88;7.55;;;;;;;12.62;100.00;99564.28;5054084;28;20205;-73
2021/09/29 01:15:48;;;;;;;9.20;7.00;;;;;;;12.68;100.00;99564.69;5053320;28;20211;-73
2021/09/29 01:18:21;;;;;;;12.85;6.80;;;;;;;12.72;100.00;99566.22;5053708;28;20216;-73
2021/09/29 01:20:51;;;;;;;7.93;6.45;;;;;;;12.79;100.00;99563.13;5053979;28;20721;-72
2021/09/29 01:23:42;;;;;;;9.05;7.45;;;;;;;12.86;100.00;99568.00;5053475;28;20273;-73
2021/09/29 01:26:15;;;;;;;13.02;8.63;;;;;;;12.89;100.00;99572.34;5053382;28;20226;-72
2021/09/29 01:28:46;;;;;;;19.33;10.55;;;;;;;12.92;100.00;99566.72;5053571;28;20186;-73
2021/09/29 01:31:13;;;;;;;10.00;7.95;;;;;;;13.14;100.00;99558.88;5054368;28;20187;-73
2021/09/29 01:33:43;;;;;;;11.82;7.22;;;;;;;13.19;100.00;99565.78;5053715;28;20642;-74
2021/09/29 01:36:10;;;;;;;390.42;226.20;;;;;;;13.27;100.00;99558.00;5053177;28;20200;-73
2021/09/29 01:38:39;;;;;;;260.98;143.07;;;;;;;13.13;100.00;99559.81;5053614;28;20188;-74
2021/09/29 01:41:05;;;;;;;135.25;79.28;;;;;;;13.15;100.00;99566.00;5053585;28;20540;-73
2021/09/29 01:43:34;;;;;;;454.02;273.38;;;;;;;13.19;100.00;99557.69;5059463;28;20193;-73
2021/09/29 01:46:01;;;;;;;209.10;126.53;;;;;;;13.35;99.96;99561.06;5073439;28;20295;-73
2021/09/29 01:48:28;;;;;;;82.47;53.35;;;;;;;13.26;99.54;99564.38;5073355;28;20663;-74
2021/09/29 01:50:58;;;;;;;97.40;61.05;;;;;;;13.21;100.00;99562.00;5073042;28;20212;-74
2021/09/29 01:53:27;;;;;;;45.40;29.27;;;;;;;13.06;100.00;99560.38;5073156;28;20241;-74
2021/09/29 01:55:54;;;;;;;40.35;24.35;;;;;;;13.12;100.00;99555.41;5073508;28;20223;-74
2021/09/29 01:58:21;;;;;;;27.02;17.30;;;;;;;13.17;100.00;99554.22;5072628;28;20205;-73
2021/09/29 02:00:49;;;;;;;23.05;16.58;;;;;;;13.20;99.75;99564.81;5053326;28;20193;-74
2021/09/29 02:03:21;;;;;;;40.83;27.38;;;;;;;13.07;100.00;99553.97;5052884;28;20197;-73
2021/09/29 02:05:49;;;;;;;9.20;8.10;;;;;;;13.06;100.00;99557.66;5052940;28;20212;-74
2021/09/29 02:08:16;;;;;;;7.60;6.55;;;;;;;13.15;99.15;99551.63;5052876;28;20190;-74
2021/09/29 02:10:42;;;;;;;8.18;7.35;;;;;;;13.16;98.97;99558.78;5053136;28;20202;-73
2021/09/29 02:13:09;;;;;;;8.65;7.43;;;;;;;13.31;96.68;99546.03;5053042;28;20206;-73
2021/09/29 02:15:36;;;;;;;9.70;6.50;;;;;;;13.32;96.19;99550.47;5053112;28;20186;-72
2021/09/29 02:18:04;;;;;;;9.52;7.20;;;;;;;13.17;96.35;99554.22;5053025;28;20204;-73
2021/09/29 02:20:30;;;;;;;7.47;6.65;;;;;;;13.09;97.13;99544.81;5065046;28;20200;-73
2021/09/29 02:22:57;;;;;;;10.07;7.00;;;;;;;13.04;97.33;99540.69;5072866;28;20690;-73
2021/09/29 02:25:24;;;;;;;7.70;6.90;;;;;;;12.96;97.60;99537.63;5073111;28;20206;-74
2021/09/29 02:27:51;;;;;;;11.30;7.13;;;;;;;12.90;98.66;99538.94;5076874;28;20196;-73
2021/09/29 02:30:17;;;;;;;8.82;7.85;;;;;;;12.92;98.71;99540.56;5077166;28;20205;-73
2021/09/29 02:32:44;;;;;;;8.35;7.30;;;;;;;13.03;97.61;99549.78;5076562;28;20282;-73
2021/09/29 02:35:12;;;;;;;8.00;6.43;;;;;;;13.04;97.56;99549.66;5077011;28;20208;-73
2021/09/29 02:37:39;;;;;;;13.20;7.88;;;;;;;13.09;96.99;99558.31;5076799;28;20201;-73
2021/09/29 02:40:08;;;;;;;8.93;8.02;;;;;;;12.94;97.51;99548.56;5076134;28;20198;-73
2021/09/29 02:42:35;;;;;;;8.15;6.93;;;;;;;13.12;96.17;99551.84;5056785;28;20227;-73
2021/09/29 02:45:01;;;;;;;8.02;6.90;;;;;;;12.98;96.53;99541.09;5056568;28;20653;-73
2021/09/29 02:47:28;;;;;;;8.02;7.22;;;;;;;12.79;98.01;99549.59;5056897;28;20198;-73
2021/09/29 02:49:55;;;;;;;9.23;7.30;;;;;;;12.88;97.48;99543.56;5056616;28;20529;-73
2021/09/29 02:52:23;;;;;;;7.88;6.75;;;;;;;12.94;97.37;99538.63;5056185;28;20269;-73
2021/09/29 02:54:50;;;;;;;9.23;7.53;;;;;;;12.93;96.36;99547.72;5056331;28;20186;-73
2021/09/29 02:57:17;;;;;;;10.57;8.93;;;;;;;12.94;96.50;99540.47;5056533;28;20204;-73
2021/09/29 02:59:44;;;;;;;10.05;7.55;;;;;;;12.83;96.37;99545.72;5056397;28;20605;-73
2021/09/29 03:02:11;;;;;;;11.35;7.65;;;;;;;12.78;97.18;99547.88;5056245;28;20278;-73
2021/09/29 03:04:38;;;;;;;12.77;7.65;;;;;;;12.70;96.70;99548.41;5056436;28;20646;-73
2021/09/29 03:07:05;;;;;;;10.75;6.78;;;;;;;12.72;97.30;99552.72;5056413;28;20190;-73
2021/09/29 03:09:33;;;;;;;9.48;7.60;;;;;;;12.72;96.99;99552.72;5056303;28;20273;-73
2021/09/29 03:12:00;;;;;;;9.25;7.95;;;;;;;12.63;98.31;99549.78;5056219;28;20204;-74
2021/09/29 03:14:27;;;;;;;8.68;7.78;;;;;;;12.66;98.34;99555.84;5056024;28;20191;-73
2021/09/29 03:16:53;;;;;;;9.05;6.97;;;;;;;12.79;97.55;99549.59;5056356;28;20536;-73
2021/09/29 03:19:20;;;;;;;10.15;7.88;;;;;;;12.71;96.91;99548.28;5056139;28;20198;-74
2021/09/29 03:21:47;;;;;;;8.35;7.20;;;;;;;12.64;97.37;99548.78;5056201;28;20186;-73
2021/09/29 03:24:18;;;;;;;9.60;8.25;;;;;;;12.71;96.74;99548.28;5055775;28;20198;-73
2021/09/29 03:26:47;;;;;;;15.68;7.32;;;;;;;12.70;96.77;99543.00;5055730;28;20299;-74
2021/09/29 03:29:14;;;;;;;7.82;6.80;;;;;;;12.45;98.29;99544.63;5056188;28;20202;-73
2021/09/29 03:31:40;;;;;;;10.65;7.00;;;;;;;12.39;98.65;99545.06;5055697;28;20276;-74
2021/09/29 03:34:07;;;;;;;8.77;7.22;;;;;;;12.27;100.00;99553.97;5055943;28;20186;-73
2021/09/29 03:36:34;;;;;;;8.57;7.65;;;;;;;12.31;100.00;99561.75;5055560;28;20211;-73
2021/09/29 03:39:01;;;;;;;10.00;7.97;;;;;;;12.28;100.00;99548.47;5054799;28;20193;-72
2021/09/29 03:41:27;;;;;;;9.90;7.50;;;;;;;12.23;100.00;99558.72;5055417;28;20190;-73
2021/09/29 03:43:55;;;;;;;11.02;7.50;;;;;;;12.19;100.00;99557.19;5056030;28;20739;-72
2021/09/29 03:46:22;;;;;;;9.85;7.88;;;;;;;12.16;100.00;99559.19;5055371;28;20202;-74
2021/09/29 03:48:48;;;;;;;9.38;7.32;;;;;;;12.06;100.00;99550.84;5055688;28;20642;-74
2021/09/29 03:51:16;;;;;;;9.27;7.50;;;;;;;11.99;100.00;99557.59;5055675;28;20208;-73
2021/09/29 03:53:43;;;;;;;10.50;8.23;;;;;;;11.96;100.00;99561.38;5055525;28;20222;-73
2021/09/29 03:56:09;;;;;;;11.45;8.40;;;;;;;11.86;100.00;99563.75;5055437;28;20296;-73
2021/09/29 03:58:36;;;;;;;9.02;7.93;;;;;;;11.88;100.00;99558.28;5055502;28;20545;-73
2021/09/29 04:01:04;;;;;;;9.55;8.18;;;;;;;11.85;100.00;99558.47;5055726;28;20276;-73
2021/09/29 04:03:30;;;;;;;9.75;8.30;;;;;;;11.89;100.00;99563.59;5054990;28;20190;-73
2021/09/29 04:05:57;;;;;;;12.25;9.02;;;;;;;11.84;100.00;99557.56;5054878;28;20221;-73
2021/09/29 04:08:24;;;;;;;8.82;7.82;;;;;;;11.78;100.00;99559.78;5055393;28;20615;-73
2021/09/29 04:10:50;;;;;;;9.77;7.63;;;;;;;11.97;100.00;99562.22;5055085;28;20208;-73
2021/09/29 04:13:17;;;;;;;11.25;8.70;;;;;;;11.89;100.00;99570.81;5054873;28;20201;-74
2021/09/29 04:15:43;;;;;;;8.98;7.65;;;;;;;12.08;100.00;99565.09;5055175;28;20671;-73
2021/09/29 04:18:11;;;;;;;9.68;7.80;;;;;;;11.99;100.00;99568.41;5054904;28;20281;-72
2021/09/29 04:20:38;;;;;;;11.57;8.52;;;;;;;11.86;100.00;99569.13;5054972;28;20659;-73
2021/09/29 04:23:07;;;;;;;10.35;8.00;;;;;;;11.83;100.00;99563.94;5055049;28;20558;-74
2021/09/29 04:25:33;;;;;;;10.55;7.78;;;;;;;11.88;100.00;99559.16;5054785;28;20205;-74
2021/09/29 04:28:00;;;;;;;10.63;9.07;;;;;;;11.89;100.00;99570.81;5054446;28;20201;-74
2021/09/29 04:30:27;;;;;;;9.50;8.07;;;;;;;11.94;100.00;99570.50;5054925;28;20515;-74
2021/09/29 04:32:55;;;;;;;9.18;7.47;;;;;;;11.88;100.00;99569.94;5054570;28;20193;-74
2021/09/29 04:35:23;;;;;;;10.27;8.38;;;;;;;11.97;100.00;99570.31;5054992;28;20250;-74
2021/09/29 04:37:49;;;;;;;12.23;8.05;;;;;;;11.98;100.00;99570.22;5054309;28;20205;-73
2021/09/29 04:40:16;;;;;;;9.82;8.45;;;;;;;11.98;100.00;99577.44;5054418;28;20213;-72
2021/09/29 04:42:43;;;;;;;10.60;8.70;;;;;;;11.91;100.00;99576.09;5054592;28;20542;-74
2021/09/29 04:45:09;;;;;;;9.13;7.88;;;;;;;11.97;100.00;99573.03;5054121;28;20207;-74
2021/09/29 04:47:36;;;;;;;10.30;7.65;;;;;;;11.79;100.00;99565.09;5054228;28;20215;-74
2021/09/29 04:50:03;;;;;;;10.48;7.25;;;;;;;11.96;100.00;99568.56;5054114;28;20280;-74
2021/09/29 04:52:31;;;;;;;11.50;8.35;;;;;;;11.89;100.00;99558.19;5054179;28;20237;-74
2021/09/29 04:54:58;;;;;;;12.52;7.18;;;;;;;11.92;100.00;99570.63;5066671;28;20206;-74
2021/09/29 04:57:24;;;;;;;14.15;8.05;;;;;;;11.92;100.00;99558.94;5074184;28;20189;-73
2021/09/29 04:59:51;;;;;;;12.07;8.43;;;;;;;11.98;100.00;99566.66;5074204;28;20227;-73
2021/09/29 05:02:19;;;;;;;9.93;8.00;;;;;;;11.94;100.00;99557.00;5074234;28;20206;-74
2021/09/29 05:04:46;;;;;;;11.35;7.47;;;;;;;12.08;100.00;99559.72;5073922;28;20192;-72
2021/09/29 05:07:17;;;;;;;8.57;6.18;;;;;;;12.09;99.58;99562.28;5073834;28;20543;-74
2021/09/29 05:09:45;;;;;;;10.63;7.72;;;;;;;11.99;100.00;99560.31;5073551;28;20239;-72
2021/09/29 05:12:21;;;;;;;10.63;6.75;;;;;;;12.07;99.54;99557.97;5066054;28;20652;-74
2021/09/29 05:14:48;;;;;;;10.18;8.60;;;;;;;12.02;99.39;99562.78;5069978;28;20554;-74
2021/09/29 05:17:14;;;;;;;8.98;7.72;;;;;;;12.07;99.39;99558.84;5070637;28;20582;-73
2021/09/29 05:19:41;;;;;;;11.38;6.78;;;;;;;12.08;99.55;99565.97;5053409;28;20508;-74
2021/09/29 05:22:08;;;;;;;10.80;7.25;;;;;;;12.07;99.44;99560.66;5053094;28;20202;-74
2021/09/29 05:24:35;;;;;;;7.93;6.20;;;;;;;11.97;100.00;99568.50;5053399;28;20277;-73
2021/09/29 05:27:03;;;;;;;8.88;6.90;;;;;;;12.14;99.06;99569.22;5053011;28;20225;-72
2021/09/29 05:29:31;;;;;;;11.68;7.13;;;;;;;12.08;99.27;99571.38;5072971;28;20276;-72
2021/09/29 05:31:58;;;;;;;9.43;7.35;;;;;;;12.04;99.18;99572.53;5073099;28;20520;-73
2021/09/29 05:34:26;;;;;;;14.50;8.02;;;;;;;12.05;99.72;99571.56;5071953;28;20285;-73
2021/09/29 05:36:53;;;;;;;12.80;9.55;;;;;;;12.08;100.00;99570.50;5072481;28;20201;-73
2021/09/29 05:39:20;;;;;;;10.43;6.80;;;;;;;12.24;98.46;99565.81;5072519;28;20304;-73
2021/09/29 05:41:47;;;;;;;13.40;6.60;;;;;;;12.21;98.51;99567.84;5072016;28;20215;-74
2021/09/29 05:44:15;;;;;;;10.60;8.20;;;;;;;12.26;97.78;99569.31;5069332;28;20204;-74
2021/09/29 05:46:41;;;;;;;9.48;7.30;;;;;;;12.19;97.68;99577.88;5070947;28;20220;-74
2021/09/29 05:49:08;;;;;;;7.53;6.47;;;;;;;12.33;97.32;99568.91;5069750;28;20192;-73
2021/09/29 05:51:35;;;;;;;11.93;7.93;;;;;;;12.42;96.71;99565.59;5062041;28;20200;-72
2021/09/29 05:54:02;;;;;;;9.82;7.00;;;;;;;12.54;95.12;99556.66;5071599;28;20257;-72
2021/09/29 05:56:28;;;;;;;9.73;6.53;;;;;;;12.67;94.17;99572.94;5062946;28;20669;-72
2021/09/29 05:58:55;;;;;;;11.05;6.45;;;;;;;12.73;93.97;99569.81;5071822;28;20225;-73
2021/09/29 06:01:23;;;;;;;10.10;7.18;;;;;;;12.87;92.80;99574.28;5071693;28;20201;-73
2021/09/29 06:03:49;;;;;;;9.35;6.15;;;;;;;13.20;90.26;99571.06;5072517;28;20202;-73
2021/09/29 06:06:16;;;;;;;7.07;6.32;;;;;;;13.26;89.19;99580.63;5072735;28;20201;-73
2021/09/29 06:08:43;;;;;;;6.95;4.60;;;;;;;13.36;87.42;99581.72;5071960;28;20293;-73
2021/09/29 06:11:09;;;;;;;8.55;4.40;;;;;;;13.51;86.13;99587.91;5071355;28;20600;-73
2021/09/29 06:13:36;;;;;;;8.73;4.57;;;;;;;13.65;84.69;99573.41;5067464;28;20289;-73
2021/09/29 06:16:07;;;;;;;6.05;4.20;;;;;;;13.79;83.23;99578.69;5066726;28;20239;-73
2021/09/29 06:18:35;;;;;;;3.72;3.42;;;;;;;13.92;82.13;99573.25;5092713;28;20184;-72
2021/09/29 06:21:03;;;;;;;7.32;5.72;;;;;;;14.12;81.36;99578.09;5092809;28;20205;-73
2021/09/29 06:23:30;;;;;;;7.85;4.10;;;;;;;14.19;80.03;99579.34;5092902;28;20705;-73
2021/09/29 06:25:57;;;;;;;6.90;4.13;;;;;;;14.24;79.85;99581.72;5092046;28;20219;-72
2021/09/29 06:28:24;;;;;;;6.00;3.78;;;;;;;14.18;80.21;99582.19;5091796;28;20185;-73
2021/09/29 06:30:50;;;;;;;5.95;4.20;;;;;;;14.22;79.90;99580.97;5092280;28;20296;-73
2021/09/29 06:33:17;;;;;;;5.43;4.05;;;;;;;14.23;80.14;99582.72;5092561;28;20184;-73
2021/09/29 06:35:45;;;;;;;6.85;6.13;;;;;;;14.21;80.24;99578.41;5092349;28;20214;-72
2021/09/29 06:38:11;;;;;;;6.03;3.95;;;;;;;14.18;80.50;99591.19;5092154;28;20289;-72
2021/09/29 06:40:38;;;;;;;11.77;4.13;;;;;;;14.29;80.26;99582.28;5092341;28;20226;-74
2021/09/29 06:43:05;;;;;;;10.05;3.88;;;;;;;14.30;79.50;99584.00;5092211;28;20333;-73
2021/09/29 06:45:34;;;;;;;5.18;3.47;;;;;;;14.46;79.00;99589.13;5087764;28;20269;-73
2021/09/29 06:48:00;;;;;;;5.93;3.50;;;;;;;14.37;79.57;99592.53;5091885;28;20203;-72
2021/09/29 06:50:27;;;;;;;4.45;3.45;;;;;;;14.47;79.00;99590.88;5091503;28;20235;-74
2021/09/29 06:52:55;;;;;;;4.85;4.03;;;;;;;14.51;78.62;99592.34;5090169;28;20232;-74
2021/09/29 06:55:22;;;;;;;4.32;3.65;;;;;;;14.45;78.36;99591.94;5090815;28;20211;-74
2021/09/29 06:57:49;;;;;;;5.78;3.30;;;;;;;14.37;78.38;99587.13;5091042;28;20206;-74
2021/09/29 07:00:16;;;;;;;7.45;4.05;;;;;;;14.46;78.63;99590.97;5091168;28;20711;-72
2021/09/29 07:02:44;;;;;;;6.90;4.18;;;;;;;14.51;79.15;99592.34;5090588;28;20210;-72
2021/09/29 07:05:12;;;;;;;3.42;2.75;;;;;;;14.55;78.60;99583.06;5090279;28;20195;-71
2021/09/29 07:07:39;;;;;;;5.35;3.80;;;;;;;14.60;78.26;99580.00;5090797;28;20303;-73
2021/09/29 07:10:08;;;;;;;4.97;3.40;;;;;;;14.58;78.76;99580.13;5091067;28;20217;-74
2021/09/29 07:12:35;;;;;;;6.03;3.00;;;;;;;14.65;78.06;99575.09;5091783;28;20204;-73
2021/09/29 07:15:02;;;;;;;6.85;3.90;;;;;;;14.62;78.33;99578.06;5094662;28;20206;-72
2021/09/29 07:17:29;;;;;;;5.35;3.20;;;;;;;14.62;78.26;99575.34;5094525;28;20203;-73
2021/09/29 07:19:58;;;;;;;5.20;3.05;;;;;;;14.73;77.91;99574.53;5094839;28;20211;-74
2021/09/29 07:22:25;;;;;;;5.45;2.95;;;;;;;14.86;76.93;99582.59;5095223;28;20215;-74
2021/09/29 07:24:51;;;;;;;4.88;2.80;;;;;;;15.01;76.25;99570.56;5095009;28;20211;-73
2021/09/29 07:27:20;;;;;;;9.48;4.65;;;;;;;15.00;76.51;99582.41;5094827;28;20309;-72
2021/09/29 07:29:46;;;;;;;5.50;2.75;;;;;;;15.01;76.59;99579.59;5094476;28;20247;-73
2021/09/29 07:32:13;;;;;;;3.30;3.00;;;;;;;15.16;75.37;99582.94;5094725;28;20288;-72
2021/09/29 07:34:40;;;;;;;12.85;8.27;;;;;;;15.09;75.70;99587.13;5093962;28;20322;-73
2021/09/29 07:37:07;;;;;;;8.10;4.90;;;;;;;15.22;75.07;99581.63;5094221;28;20196;-71
2021/09/29 07:39:34;;;;;;;5.28;3.47;;;;;;;15.39;74.24;99591.16;5094221;28;20289;-74
2021/09/29 07:42:00;;;;;;;4.88;3.05;;;;;;;15.48;73.34;99587.69;5093692;28;20207;-73
2021/09/29 07:44:28;;;;;;;4.43;2.55;;;;;;;15.55;73.53;99588.09;5073759;28;20234;-73
2021/09/29 07:46:55;;;;;;;3.90;2.92;;;;;;;15.48;73.85;99585.00;5094096;28;20315;-73
2021/09/29 07:49:22;;;;;;;7.35;2.67;;;;;;;15.66;72.98;99587.25;5093975;28;20306;-73
2021/09/29 07:51:49;;;;;;;4.30;2.90;;;;;;;15.61;73.36;99585.75;5091717;28;20196;-73
2021/09/29 07:54:16;;;;;;;6.35;2.97;;;;;;;15.59;73.84;99585.00;5093775;28;20227;-72
2021/09/29 07:56:43;;;;;;;6.90;3.42;;;;;;;15.77;73.01;99588.16;5093842;28;20210;-72
2021/09/29 07:59:09;;;;;;;5.15;3.40;;;;;;;15.90;72.68;99582.59;5093830;28;20503;-72
2021/09/29 08:01:38;;;;;;;5.57;2.65;;;;;;;15.80;72.78;99587.88;5094459;28;20199;-72
2021/09/29 08:04:05;;;;;;;4.65;3.92;;;;;;;15.81;74.30;99586.06;5094926;28;20283;-72
2021/09/29 08:06:31;;;;;;;4.80;3.70;;;;;;;16.01;75.10;99584.47;5094617;28;20239;-72
2021/09/29 08:08:58;;;;;;;7.38;5.22;;;;;;;15.93;76.23;99578.78;5093969;28;20235;-73
2021/09/29 08:11:24;;;;;;;5.50;3.10;;;;;;;16.13;76.65;99580.72;5095003;28;20273;-73
2021/09/29 08:13:51;;;;;;;9.23;2.72;;;;;;;16.17;75.28;99584.94;5094481;28;20275;-73
2021/09/29 08:16:18;;;;;;;8.55;3.20;;;;;;;16.00;76.11;99583.56;5094410;28;20235;-72
2021/09/29 08:18:46;;;;;;;5.25;3.00;;;;;;;16.25;75.71;99587.00;5094726;28;20614;-72
2021/09/29 08:21:16;;;;;;;5.47;3.40;;;;;;;16.37;74.92;99590.56;5093853;28;20220;-72
2021/09/29 08:23:48;;;;;;;6.47;3.45;;;;;;;16.63;72.74;99591.13;5093710;28;20224;-73
2021/09/29 08:26:34;;;;;;;4.53;2.67;;;;;;;16.34;74.36;99586.25;5094559;28;20196;-74
2021/09/29 08:31:49;;;;;;;8.93;3.10;;;;;;;17.26;71.32;99574.97;5093709;28;20527;-70
2021/09/29 08:34:20;;;;;;;3.65;2.22;;;;;;;17.44;71.06;99572.50;5094885;28;20653;-72
2021/09/29 08:36:52;;;;;;;4.30;2.33;;;;;;;17.48;69.54;99576.69;5094771;28;20201;-73
2021/09/29 08:39:27;;;;;;;4.18;2.10;;;;;;;17.44;70.80;99572.50;5094426;28;20238;-71
2021/09/29 08:42:08;;;;;;;2.97;2.00;;;;;;;17.53;70.32;99573.56;5094131;28;20215;-72
2021/09/29 08:44:43;;;;;;;6.05;2.40;;;;;;;17.55;70.71;99566.97;5094456;28;20202;-72
2021/09/29 08:47:16;;;;;;;4.80;2.35;;;;;;;17.52;71.25;99569.94;5093627;28;20204;-73
2021/09/29 08:49:54;;;;;;;2.15;1.95;;;;;;;17.28;71.71;99571.09;5094037;28;20262;-72
2021/09/29 09:14:42;;;;;;;4.53;2.35;;;;;;;16.87;74.99;99571.94;5031648;28;20226;-73
2021/09/29 09:15:32;;;;;;;8.15;2.45;;;;;;;16.90;73.04;99555.34;5093732;28;20191;-73
2021/09/29 09:18:04;;;;;;;4.60;2.45;;;;;;;17.15;71.32;99555.97;5094024;28;20585;-73
2021/09/29 09:20:39;;;;;;;5.15;2.00;;;;;;;17.35;71.39;99548.81;5094456;28;20249;-73
2021/09/29 09:23:07;;;;;;;2.53;2.10;;;;;;;17.48;69.43;99554.91;5094177;28;20275;-73
2021/09/29 09:25:36;;;;;;;4.97;2.30;;;;;;;17.09;71.29;99565.50;5094115;28;20287;-73
2021/09/29 09:28:04;;;;;;;6.22;2.17;;;;;;;16.55;74.95;99551.03;5093444;28;20644;-73
2021/09/29 09:30:33;;;;;;;3.90;2.05;;;;;;;16.52;77.28;99550.41;5093385;28;20195;-73
2021/09/29 09:33:00;;;;;;;2.10;1.90;;;;;;;16.61;78.27;99555.06;5093951;28;20238;-73
2021/09/29 09:35:40;;;;;;;12.32;2.95;;;;;;;16.91;78.37;99551.63;5092945;28;20568;-73
2021/09/29 09:38:16;;;;;;;3.70;2.13;;;;;;;17.16;76.18;99547.66;5093649;28;20641;-73
2021/09/29 09:40:43;;;;;;;4.38;2.65;;;;;;;17.18;76.77;99544.81;5092683;28;20287;-74
2021/09/29 09:43:09;;;;;;;4.68;2.80;;;;;;;17.64;75.04;99549.84;5093280;28;20202;-71
2021/09/29 09:45:43;;;;;;;4.05;2.08;;;;;;;17.59;74.27;99557.56;5093644;28;20183;-75
2021/09/29 09:48:24;;;;;;;6.35;2.40;;;;;;;16.96;78.55;99554.84;5092238;28;20247;-72
2021/09/29 09:50:56;;;;;;;6.20;2.33;;;;;;;16.91;82.48;99584.25;5092540;28;20188;-72
2021/09/29 09:53:28;;;;;;;4.68;2.20;;;;;;;16.17;87.87;99587.66;5092892;28;20318;-73
2021/09/29 09:55:56;;;;;;;8.68;2.45;;;;;;;14.92;100.00;99585.69;5092908;28;20229;-73
2021/09/29 09:58:23;;;;;;;4.15;3.28;;;;;;;14.70;100.00;99558.53;5093186;28;20282;-72
2021/09/29 10:00:58;;;;;;;9.13;3.00;;;;;;;14.60;100.00;99569.16;5093002;28;20283;-72
2021/09/29 10:03:27;;;;;;;4.85;3.00;;;;;;;14.81;100.00;99577.50;5093179;28;20310;-72
2021/09/29 10:05:54;;;;;;;6.95;4.45;;;;;;;15.34;100.00;99577.94;5092370;28;20191;-72
2021/09/29 10:08:26;;;;;;;7.03;2.70;;;;;;;15.34;100.00;99582.50;5092397;28;20295;-72
2021/09/29 10:11:02;;;;;;;6.13;2.35;;;;;;;15.55;100.00;99583.50;5091784;28;20191;-74
2021/09/29 10:27:40;;;;;;;4.13;2.30;;;;;;;15.49;99.87;99577.72;5070686;28;20215;-75
2021/09/29 10:30:10;;;;;;;5.30;2.70;;;;;;;15.32;98.98;99576.34;5071075;28;20232;-74
2021/09/29 10:32:42;;;;;;;3.67;2.20;;;;;;;15.43;99.23;99574.50;5071471;28;20218;-73
2021/09/29 10:35:14;;;;;;;5.72;2.30;;;;;;;15.57;98.69;99580.69;5071189;28;20667;-73
2021/09/29 10:40:57;;;;;;;2.80;1.90;;;;;;;15.44;96.90;99594.34;5070989;28;20188;-74
2021/09/29 10:43:31;;;;;;;5.63;2.90;;;;;;;15.46;98.61;99595.09;5070881;28;20196;-73
2021/09/29 10:46:10;;;;;;;4.85;2.50;;;;;;;15.46;100.00;99597.81;5071280;28;20693;-74
2021/09/29 10:49:04;;;;;;;12.05;3.22;;;;;;;15.37;100.00;99601.25;5074961;28;20219;-73
2021/09/29 11:08:59;;;;;;;4.55;1.95;;;;;;;15.98;89.93;99604.56;5055993;28;20217;-73
2021/09/29 11:30:52;;;;;;;1.40;1.02;;;;;;;16.52;80.47;99607.47;5114213;28;20271;-73
2021/09/29 11:33:33;;;;;;;1.73;1.20;;;;;;;16.57;80.99;99607.94;5113865;28;20191;-74
2021/09/29 12:09:05;;;;;;;1.42;1.00;;;;;;;16.08;70.29;99658.13;5113697;28;20229;-72
2021/09/29 12:11:41;;;;;;;1.92;1.50;;;;;;;16.34;69.66;99651.47;5114305;28;20240;-73
2021/09/29 12:14:14;;;;;;;2.03;1.02;;;;;;;15.95;68.08;99650.97;5113816;28;20593;-72
2021/09/29 12:16:40;;;;;;;1.85;1.10;;;;;;;15.88;68.50;99660.59;5113675;28;20193;-72
2021/09/29 12:19:09;;;;;;;2.33;1.10;;;;;;;15.99;68.29;99667.91;5113532;28;20281;-72
2021/09/29 12:21:42;;;;;;;1.27;0.90;;;;;;;16.21;67.60;99669.75;5112692;28;20210;-73
2021/09/29 12:24:12;;;;;;;1.55;0.85;;;;;;;16.30;67.40;99682.59;5113724;28;20183;-73
2021/09/29 12:26:46;;;;;;;2.95;1.00;;;;;;;16.16;68.66;99671.97;5113015;28;20270;-74
2021/09/29 12:29:25;;;;;;;2.03;0.77;;;;;;;16.13;69.12;99670.38;5119466;27;20202;-72
2021/09/29 12:32:07;;;;;;;1.88;1.13;;;;;;;15.82;69.82;99678.22;5132971;27;20276;-73
2021/09/29 12:34:47;;;;;;;2.17;1.20;;;;;;;15.99;70.91;99685.06;5134119;27;20189;-71
2021/09/29 12:37:15;;;;;;;1.33;1.00;;;;;;;16.18;69.29;99689.00;5134137;27;20277;-73
2021/09/29 12:39:43;;;;;;;1.40;1.00;;;;;;;16.09;69.61;99690.59;5134443;27;20617;-71
2021/09/29 12:42:10;;;;;;;2.30;1.00;;;;;;;16.19;70.91;99688.00;5134109;27;20198;-72
2021/09/29 12:44:49;;;;;;;1.20;0.80;;;;;;;16.24;67.98;99683.97;5134181;27;20546;-72
2021/09/29 12:47:22;;;;;;;2.40;1.13;;;;;;;16.27;66.18;99691.00;5133596;27;20281;-71
2021/09/29 12:49:48;;;;;;;1.65;1.00;;;;;;;16.98;63.42;99682.50;5133714;27;20182;-72
2021/09/29 12:52:28;;;;;;;1.83;1.45;;;;;;;17.47;60.85;99679.22;5133728;27;20289;-73
2021/09/29 12:54:56;;;;;;;3.53;1.10;;;;;;;17.70;59.99;99677.28;5134426;27;20289;-70
2021/09/29 12:57:24;;;;;;;3.55;1.42;;;;;;;17.83;59.37;99673.50;5133852;27;20646;-71
2021/09/29 12:59:51;;;;;;;1.45;0.82;;;;;;;18.53;56.70;99677.28;5134135;27;20672;-71
2021/09/29 13:02:17;;;;;;;1.90;1.15;;;;;;;18.71;55.97;99681.06;5132998;27;20203;-71
2021/09/29 13:04:44;;;;;;;1.52;0.90;;;;;;;18.30;55.62;99665.72;5133919;27;20213;-72
2021/09/29 13:07:11;;;;;;;3.15;0.90;;;;;;;17.60;56.39;99667.31;5133808;27;20279;-71
2021/09/29 13:09:38;;;;;;;1.52;0.85;;;;;;;17.34;58.11;99684.00;5133666;27;20289;-71
2021/09/29 13:12:06;;;;;;;1.55;0.98;;;;;;;16.98;58.03;99704.28;5133021;27;20189;-73
2021/09/29 13:14:32;;;;;;;3.17;1.45;;;;;;;16.64;59.28;99702.47;5133909;27;20204;-71
2021/09/29 13:16:59;;;;;;;3.28;2.03;;;;;;;16.78;59.23;99720.38;5133878;27;20279;-72
2021/09/29 13:19:30;;;;;;;2.33;1.42;;;;;;;16.39;59.65;99711.75;5133503;27;20294;-72
2021/09/29 13:21:59;;;;;;;3.05;1.08;;;;;;;16.95;57.91;99715.41;5133044;27;20223;-74
2021/09/29 13:24:31;;;;;;;2.80;0.80;;;;;;;17.21;56.04;99725.00;5133362;27;20182;-72
2021/09/29 13:27:15;;;;;;;3.35;1.10;;;;;;;17.70;54.25;99718.13;5132588;27;20244;-72